Huvudsida
METAR-TAF:

METAR-TAF

Flygplatser :

Flugplatz Wiener Neustadt/Ost

Wiener Neustadt, Österrike

latitud: 47-50-36N, longitud: 016-15-29E, höjd: 272 m

Aktuellt väderrapport

Denna rapport gjordes för 5 timmar och 54 minuter sedan, klockan 16:00 UTC
Vind 15 kt från syd/sydost
Temperatur
Tryck
Sikt 10 km eller mer
Inga moln under 1 500 m eller inga cumulonimbus

METAR: LOAN 081600Z 16015KT CAVOK

Tid: 23:54 (21:54 UTC)

Väderprognos

Denna rapport gjordes för 10 timmar och 29 minuter sedan, klockan 11:25 UTC
Prognos gäller från 08 kl. 12 UTC till 08 kl. 21 UTC
Vind 8 kt från syd/sydost
Sikt 10 km eller mer
Inga moln under 1 500 m eller inga cumulonimbus
Temporärt
från 08 kl. 12 UTC till 08 kl. 16 UTC
Vind 12 kt från syd/sydost i byarna ända upp till 25 kt

TAF: LOAN 081125Z 0812/0821 16008KT CAVOK TEMPO 0812/0816 16012G25KT

Aktuella väderrapporter och prognoser från 4000 flygplatser (METAR- och TAF-rapporter).

De tillgängliga stationerna syns som gula och röda prickar på kartan.

För musen över prickarna för att se namnen på stationerna.

Klicka sedan för att få väderrapporter och prognoser.

För att ändra kartan: Klicka på de gröna knapparna med ett svart kors på för att zooma in; den gröna knappen med ett streck på för att zooma ut; eller på de gröna pilarna för angränsande kartor.


METAR-TAF: